KOGA Airport (Searle Field) Information

FAA: OGA - ICAO: KOGA

KOGA Airport Location

State Nebraska
County Keith
City Ogallala
KOGA Airport is 2 miles west of Ogallala, NE.
Latitude 41-07-10.1000N
Longitude 101-46-10.9000W
Elevation 3,279ft

KOGA Airport METARs

METAR KOGA 302115Z AUTO 10006KT 3SM HZ CLR 30/08 A2990 RMK AO2 T02950080
Altimeter 29.90"
Temperature 29.5°C (85.1°F)
Wind 100° at 6KT
Clouds Skies are clear.
Visibility 3.0mi
Time observed: 2022-09-30T21:15:00Z

KOGA Airport Details

Status Operational
Activation April 1940
Ownership Public
Usage Public
Chart CHEYENNE
ATC on-site No
Beacon schedule sunset-sunrise
Beacon color clear green

KOGA Airport Contacts

Owner CITY OF OGALLALA
Owner address 411 E 2ND STREET, OGALLALA, NE 69153-2631
Owner phone 308-284-6001
Manager DAVID A ROTH
Manager address 2609 PIONEERS RD, MILFORD, NE 68405-8753
Manager phone 402-761-2671

KOGA Airport (Searle Field) Radio Frequencies

KOGA (Airport) Radio Frequencies

UNICOM 122.8
Common traffic advisory frequency (CTAF) 122.8